createdAt,value
2018-05-17T00:01:39.592Z,3.95
2018-05-17T00:04:13.179Z,3.60
2018-05-17T00:06:46.781Z,4.30
2018-05-17T00:09:21.101Z,4.45
2018-05-17T00:11:54.770Z,3.97
2018-05-17T00:14:28.424Z,4.15
2018-05-17T00:17:02.727Z,5.30
2018-05-17T00:19:36.445Z,4.30
2018-05-17T00:22:10.027Z,7.78
2018-05-17T00:24:43.550Z,4.57
2018-05-17T00:27:17.115Z,6.28
2018-05-17T00:29:50.614Z,4.30
2018-05-17T00:32:24.230Z,5.12
2018-05-17T00:34:58.563Z,4.07
2018-05-17T00:37:32.250Z,4.50
2018-05-17T00:40:06.698Z,4.47
2018-05-17T00:42:41.190Z,5.15
2018-05-17T00:45:14.866Z,4.80
2018-05-17T00:47:48.398Z,4.55
2018-05-17T00:50:22.706Z,5.07
2018-05-17T01:06:24.885Z,4.12
2018-05-17T01:08:58.492Z,4.45
2018-05-17T01:11:32.210Z,4.45
2018-05-17T01:14:05.982Z,3.72
2018-05-17T01:16:39.547Z,4.22
2018-05-17T01:19:13.171Z,3.67
2018-05-17T01:21:46.755Z,4.72
2018-05-17T01:24:20.349Z,4.30
2018-05-17T01:26:53.883Z,4.40
2018-05-17T01:29:27.473Z,4.32
2018-05-17T01:32:01.059Z,4.43
2018-05-17T01:34:34.596Z,4.30
2018-05-17T01:37:20.095Z,4.65
2018-05-17T01:39:53.578Z,4.57
2018-05-17T01:42:27.149Z,5.00
2018-05-17T01:45:01.460Z,4.47
2018-05-17T01:47:35.195Z,4.90
2018-05-17T01:50:08.693Z,5.18
2018-05-17T01:52:42.272Z,3.90
2018-05-17T01:55:16.023Z,5.00
2018-05-17T01:57:49.553Z,4.37
2018-05-17T02:00:23.199Z,4.70
2018-05-17T02:02:56.738Z,5.68
2018-05-17T02:05:30.302Z,5.97
2018-05-17T02:08:03.876Z,5.45
2018-05-17T02:10:37.459Z,5.00
2018-05-17T02:13:11.113Z,4.78
2018-05-17T02:15:44.653Z,4.32
2018-05-17T02:18:18.280Z,4.50
2018-05-17T02:20:51.874Z,4.78
2018-05-17T02:23:25.475Z,5.22
2018-05-17T02:25:59.051Z,4.65
2018-05-17T02:28:32.585Z,4.72
2018-05-17T02:31:06.068Z,5.75
2018-05-17T02:33:39.614Z,5.20
2018-05-17T02:36:13.179Z,4.40
2018-05-17T02:38:46.749Z,5.18
2018-05-17T02:41:20.315Z,4.90
2018-05-17T02:43:53.871Z,5.20
2018-05-17T02:46:27.377Z,5.10
2018-05-17T02:49:01.052Z,5.97
2018-05-17T02:51:34.475Z,5.82
2018-05-17T02:54:08.087Z,5.72
2018-05-17T02:56:41.673Z,4.68
2018-05-17T02:59:16.017Z,5.10
2018-05-17T03:01:49.622Z,4.90
2018-05-17T03:04:23.166Z,5.00
2018-05-17T03:06:56.711Z,5.90
2018-05-17T03:09:30.280Z,19.73
2018-05-17T03:12:04.004Z,5.47
2018-05-17T03:14:38.310Z,4.90
2018-05-17T03:17:11.904Z,5.50
2018-05-17T03:19:45.497Z,5.32
2018-05-17T03:22:19.247Z,6.20
2018-05-17T03:24:52.948Z,4.97
2018-05-17T03:27:26.624Z,5.03
2018-05-17T03:30:00.283Z,4.55
2018-05-17T03:32:33.832Z,5.07
2018-05-17T03:35:07.416Z,4.50
2018-05-17T03:37:41.012Z,4.65
2018-05-17T03:40:14.536Z,5.05
2018-05-17T03:42:48.135Z,4.40
2018-05-17T03:45:21.697Z,5.53
2018-05-17T03:47:55.398Z,4.68
2018-05-17T03:50:29.742Z,4.00
2018-05-17T03:53:03.552Z,4.65
2018-05-17T03:55:37.036Z,4.55
2018-05-17T03:58:10.667Z,3.78
2018-05-17T04:00:56.307Z,4.40
2018-05-17T04:03:41.789Z,4.25
2018-05-17T04:06:27.315Z,6.35
2018-05-17T04:09:00.886Z,6.90
2018-05-17T04:11:34.476Z,6.12
2018-05-17T04:14:08.003Z,4.62
2018-05-17T04:16:41.597Z,4.55
2018-05-17T04:19:15.183Z,4.80
2018-05-17T04:21:48.792Z,4.28
2018-05-17T04:24:22.566Z,5.57
2018-05-17T04:26:56.104Z,6.80
2018-05-17T04:29:29.623Z,5.47
2018-05-17T04:32:03.216Z,3.70
2018-05-17T04:34:36.883Z,3.30
2018-05-17T04:37:10.473Z,3.92
2018-05-17T04:39:44.815Z,3.12
2018-05-17T04:42:18.969Z,5.05
2018-05-17T04:44:52.629Z,5.55
2018-05-17T04:47:26.213Z,4.65
2018-05-17T04:50:00.554Z,3.72
2018-05-17T04:52:34.861Z,4.05
2018-05-17T04:55:09.389Z,4.57
2018-05-17T04:57:43.121Z,5.95
2018-05-17T05:00:16.637Z,5.50
2018-05-17T05:02:50.238Z,4.65
2018-05-17T05:05:23.747Z,4.00
2018-05-17T05:07:57.272Z,6.32
2018-05-17T05:10:30.788Z,5.50
2018-05-17T05:13:05.199Z,4.00
2018-05-17T05:15:38.741Z,3.25
2018-05-17T05:18:12.296Z,3.05
2018-05-17T05:20:45.814Z,2.72
2018-05-17T05:23:20.127Z,2.42
2018-05-17T05:25:53.759Z,3.00
2018-05-17T05:28:27.272Z,3.12
2018-05-17T05:31:00.824Z,3.75
2018-05-17T05:33:34.489Z,2.92
2018-05-17T05:36:08.256Z,2.67
2018-05-17T05:38:42.559Z,3.08
2018-05-17T05:41:16.274Z,3.60
2018-05-17T05:43:49.813Z,3.30
2018-05-17T05:46:23.357Z,3.22
2018-05-17T05:48:56.966Z,3.00
2018-05-17T05:51:30.548Z,3.10
2018-05-17T05:54:04.081Z,3.17
2018-05-17T05:56:37.664Z,2.87
2018-05-17T05:59:11.243Z,2.80
2018-05-17T06:01:44.779Z,2.67
2018-05-17T06:04:19.086Z,3.40
2018-05-17T06:06:52.810Z,3.42
2018-05-17T06:09:27.150Z,4.25
2018-05-17T06:12:01.640Z,3.75
2018-05-17T06:14:36.051Z,3.80
2018-05-17T06:17:09.756Z,3.03
2018-05-17T06:19:43.343Z,2.53
2018-05-17T06:22:16.922Z,2.87
2018-05-17T06:24:50.575Z,2.58
2018-05-17T06:27:24.136Z,2.60
2018-05-17T06:29:57.756Z,2.30
2018-05-17T06:32:32.339Z,2.95
2018-05-17T06:35:06.111Z,3.15
2018-05-17T06:37:39.794Z,2.85
2018-05-17T06:40:13.272Z,2.25
2018-05-17T06:42:46.978Z,2.70
2018-05-17T06:45:20.584Z,2.58
2018-05-17T06:47:54.095Z,2.40
2018-05-17T06:50:27.664Z,1.95
2018-05-17T06:53:01.668Z,2.00
2018-05-17T06:55:35.229Z,2.42
2018-05-17T06:58:08.779Z,2.28
2018-05-17T07:00:42.472Z,1.70
2018-05-17T07:03:15.966Z,1.87
2018-05-17T07:05:50.525Z,1.60
2018-05-17T07:08:24.263Z,2.80
2018-05-17T07:10:57.836Z,3.80
2018-05-17T07:13:31.646Z,3.97
2018-05-17T07:16:05.222Z,2.15
2018-05-17T07:18:39.849Z,2.15
2018-05-17T07:21:13.070Z,1.92
2018-05-17T07:23:46.636Z,2.00
2018-05-17T07:26:20.126Z,1.90
2018-05-17T07:28:54.400Z,1.87
2018-05-17T07:31:28.950Z,3.17
2018-05-17T07:34:02.568Z,2.67
2018-05-17T07:36:36.151Z,3.00
2018-05-17T07:39:09.799Z,2.28
2018-05-17T07:41:43.293Z,2.00
2018-05-17T07:44:17.599Z,1.90
2018-05-17T07:46:51.158Z,1.75
2018-05-17T07:49:24.787Z,1.50
2018-05-17T07:51:58.389Z,1.85
2018-05-17T07:54:31.925Z,1.50
2018-05-17T07:57:05.519Z,2.20
2018-05-17T07:59:39.104Z,1.90
2018-05-17T08:02:12.713Z,2.25
2018-05-17T08:04:46.309Z,2.62
2018-05-17T08:07:19.874Z,2.10
2018-05-17T08:09:53.379Z,2.25
2018-05-17T08:12:26.910Z,10.23
2018-05-17T08:15:01.263Z,5.47
2018-05-17T08:17:34.807Z,2.08
2018-05-17T08:20:08.413Z,1.80
2018-05-17T08:22:41.944Z,1.55
2018-05-17T08:25:15.444Z,1.70
2018-05-17T08:27:49.012Z,1.35
2018-05-17T08:30:22.579Z,2.10
2018-05-17T08:32:56.839Z,1.60
2018-05-17T08:35:30.350Z,1.42
2018-05-17T08:38:03.919Z,1.60
2018-05-17T08:40:38.300Z,3.17
2018-05-17T08:43:11.988Z,1.75
2018-05-17T08:45:45.561Z,1.10
2018-05-17T08:48:19.135Z,1.35
2018-05-17T08:50:52.745Z,1.67
2018-05-17T08:53:26.277Z,1.50
2018-05-17T08:56:00.573Z,2.87
2018-05-17T08:58:34.293Z,1.15
2018-05-17T09:01:07.807Z,1.73
2018-05-17T09:03:41.342Z,1.67
2018-05-17T09:06:15.036Z,1.30
2018-05-17T09:08:48.473Z,1.62
2018-05-17T09:11:21.974Z,2.08
2018-05-17T09:13:55.603Z,2.40
2018-05-17T09:16:29.101Z,2.70
2018-05-17T09:19:02.658Z,2.03
2018-05-17T09:21:36.201Z,1.37
2018-05-17T09:24:09.748Z,1.40
2018-05-17T09:26:43.301Z,1.87
2018-05-17T09:29:17.608Z,2.10
2018-05-17T09:31:51.299Z,2.20
2018-05-17T09:34:24.847Z,1.62
2018-05-17T09:36:58.471Z,1.45
2018-05-17T09:39:32.835Z,1.83
2018-05-17T09:42:07.128Z,2.15
2018-05-17T09:44:40.827Z,2.10
2018-05-17T09:47:14.397Z,3.20
2018-05-17T09:49:47.936Z,2.50
2018-05-17T09:52:21.530Z,3.12
2018-05-17T09:54:55.157Z,3.55
2018-05-17T09:57:28.623Z,3.15
2018-05-17T10:00:02.247Z,3.67
2018-05-17T10:02:35.826Z,4.22
2018-05-17T10:05:09.351Z,4.30
2018-05-17T10:07:42.907Z,4.28
2018-05-17T10:10:16.521Z,4.12
2018-05-17T10:12:50.105Z,4.85
2018-05-17T10:15:23.633Z,5.87
2018-05-17T10:17:57.166Z,6.00
2018-05-17T10:20:30.718Z,4.68
2018-05-17T10:23:04.338Z,4.37
2018-05-17T10:25:37.844Z,4.18
2018-05-17T10:28:11.408Z,3.53
2018-05-17T10:30:44.958Z,3.80
2018-05-17T10:33:18.520Z,12.75
2018-05-17T10:35:52.099Z,3.78
2018-05-17T10:38:25.651Z,3.62
2018-05-17T10:40:59.214Z,3.85
2018-05-17T10:43:32.796Z,2.92
2018-05-17T10:46:06.336Z,3.30
2018-05-17T10:48:39.900Z,2.80
2018-05-17T10:51:13.511Z,3.70
2018-05-17T10:53:47.057Z,3.40
2018-05-17T10:56:20.625Z,2.75
2018-05-17T10:58:54.934Z,3.03
2018-05-17T11:01:28.599Z,3.62
2018-05-17T11:04:02.250Z,3.75
2018-05-17T11:06:35.871Z,4.00
2018-05-17T11:09:09.365Z,2.80
2018-05-17T11:11:42.861Z,3.08
2018-05-17T11:14:16.417Z,3.20
2018-05-17T11:16:50.747Z,3.45
2018-05-17T11:19:24.498Z,5.25
2018-05-17T11:21:58.097Z,3.67
2018-05-17T11:24:31.907Z,2.20
2018-05-17T11:27:05.443Z,1.87
2018-05-17T11:29:39.788Z,1.73
2018-05-17T11:32:13.636Z,1.60
2018-05-17T11:34:47.177Z,1.70
2018-05-17T11:37:21.502Z,1.70
2018-05-17T11:39:55.214Z,1.80
2018-05-17T11:42:28.771Z,1.80
2018-05-17T11:45:03.034Z,1.85
2018-05-17T11:47:37.455Z,2.03
2018-05-17T11:50:11.132Z,1.80
2018-05-17T11:52:44.679Z,2.17
2018-05-17T11:55:18.252Z,1.95
2018-05-17T11:57:51.849Z,2.35
2018-05-17T12:00:25.455Z,2.40
2018-05-17T12:02:58.985Z,3.05
2018-05-17T12:05:32.476Z,2.75
2018-05-17T12:08:06.055Z,2.47
2018-05-17T12:10:39.644Z,2.30
2018-05-17T12:13:13.160Z,2.10
2018-05-17T12:15:46.752Z,3.10
2018-05-17T12:18:20.345Z,5.07
2018-05-17T12:20:53.962Z,3.72
2018-05-17T12:23:27.553Z,3.45
2018-05-17T12:26:01.093Z,2.58
2018-05-17T12:28:35.432Z,1.95
2018-05-17T12:31:09.687Z,1.90
2018-05-17T12:33:43.318Z,2.05
2018-05-17T12:36:16.888Z,1.90
2018-05-17T12:38:51.166Z,2.30
2018-05-17T12:41:24.853Z,2.30
2018-05-17T12:43:58.397Z,2.42
2018-05-17T12:46:31.936Z,2.30
2018-05-17T12:49:05.510Z,2.08
2018-05-17T12:51:39.114Z,2.15
2018-05-17T12:54:12.716Z,2.00
2018-05-17T12:56:46.359Z,2.30
2018-05-17T12:59:20.728Z,2.65
2018-05-17T13:01:54.295Z,3.60
2018-05-17T13:04:27.930Z,2.90
2018-05-17T13:07:01.598Z,3.20
2018-05-17T13:09:35.055Z,3.20
2018-05-17T13:12:08.617Z,2.80
2018-05-17T13:14:42.972Z,3.00
2018-05-17T13:17:16.643Z,3.25
2018-05-17T13:19:50.268Z,2.35
2018-05-17T13:22:24.564Z,2.87
2018-05-17T13:24:58.290Z,3.53
2018-05-17T13:27:31.858Z,4.85
2018-05-17T13:30:05.477Z,3.97
2018-05-17T13:32:39.256Z,9.02
2018-05-17T13:35:12.789Z,2.72
2018-05-17T13:37:46.290Z,3.20
2018-05-17T13:40:19.851Z,3.10
2018-05-17T13:42:53.473Z,3.30
2018-05-17T13:45:27.055Z,4.22
2018-05-17T13:48:00.655Z,3.90
2018-05-17T13:50:35.005Z,3.00
2018-05-17T13:53:08.823Z,2.87
2018-05-17T13:55:42.373Z,2.70
2018-05-17T13:58:16.821Z,2.97
2018-05-17T14:00:50.511Z,2.75
2018-05-17T14:03:24.118Z,3.15
2018-05-17T14:05:57.713Z,3.10
2018-05-17T14:08:31.257Z,4.30
2018-05-17T14:11:04.816Z,4.03
2018-05-17T14:13:38.386Z,4.50
2018-05-17T14:16:11.928Z,3.60
2018-05-17T14:18:45.479Z,4.68
2018-05-17T14:21:18.995Z,3.75
2018-05-17T14:23:52.640Z,4.47
2018-05-17T14:26:26.329Z,5.87
2018-05-17T14:28:59.829Z,5.62
2018-05-17T14:31:33.437Z,5.93
2018-05-17T14:34:07.032Z,6.80
2018-05-17T14:36:40.538Z,4.32
2018-05-17T14:39:14.270Z,5.37
2018-05-17T14:41:47.883Z,5.85
2018-05-17T14:44:21.624Z,6.10
2018-05-17T14:46:55.254Z,6.20
2018-05-17T14:49:28.834Z,6.60
2018-05-17T14:52:03.158Z,8.27
2018-05-17T14:54:37.770Z,7.05
2018-05-17T14:57:11.521Z,7.00
2018-05-17T14:59:45.824Z,6.70
2018-05-17T15:02:19.425Z,7.30
2018-05-17T15:04:53.265Z,6.90
2018-05-17T15:07:26.828Z,7.47
2018-05-17T15:10:00.412Z,6.60
2018-05-17T15:12:34.005Z,7.30
2018-05-17T15:15:07.594Z,7.05
2018-05-17T15:17:41.142Z,6.95
2018-05-17T15:20:14.703Z,6.75
2018-05-17T15:22:48.305Z,10.15
2018-05-17T15:25:21.852Z,7.90
2018-05-17T15:27:55.430Z,3.83
2018-05-17T15:30:29.014Z,3.85
2018-05-17T15:33:03.328Z,3.10
2018-05-17T15:35:36.959Z,4.43
2018-05-17T15:38:10.523Z,2.65
2018-05-17T15:40:44.056Z,2.75
2018-05-17T15:43:18.368Z,2.92
2018-05-17T15:45:52.753Z,2.85
2018-05-17T15:48:26.379Z,3.25
2018-05-17T15:50:59.962Z,3.08
2018-05-17T15:53:33.601Z,2.30
2018-05-17T15:56:07.149Z,2.40
2018-05-17T15:58:40.697Z,2.83
2018-05-17T16:01:14.247Z,3.62
2018-05-17T16:03:47.850Z,2.85
2018-05-17T16:06:21.409Z,3.35
2018-05-17T16:08:54.956Z,4.20
2018-05-17T16:11:28.591Z,4.25
2018-05-17T16:14:02.164Z,4.45
2018-05-17T16:16:35.688Z,4.65
2018-05-17T16:19:09.278Z,3.70
2018-05-17T16:21:42.934Z,3.87
2018-05-17T16:24:16.445Z,3.35
2018-05-17T16:26:50.085Z,4.50
2018-05-17T16:29:23.841Z,4.55
2018-05-17T16:31:57.371Z,6.47
2018-05-17T16:34:30.979Z,9.00
2018-05-17T16:37:05.127Z,6.35
2018-05-17T16:39:40.430Z,4.12
2018-05-17T16:42:13.951Z,3.85
2018-05-17T16:44:47.512Z,4.10
2018-05-17T16:47:21.062Z,6.07
2018-05-17T16:49:54.609Z,4.50
2018-05-17T16:52:28.257Z,3.70
2018-05-17T16:55:01.836Z,3.25
2018-05-17T16:57:35.546Z,4.05
2018-05-17T17:00:09.115Z,3.55
2018-05-17T17:02:42.633Z,3.90
2018-05-17T17:05:16.254Z,3.10
2018-05-17T17:07:49.752Z,2.97
2018-05-17T17:10:23.294Z,3.25
2018-05-17T17:12:56.921Z,3.00
2018-05-17T17:15:30.534Z,3.12
2018-05-17T17:18:04.063Z,3.30
2018-05-17T17:20:37.634Z,3.10
2018-05-17T17:23:11.120Z,3.85
2018-05-17T17:25:44.716Z,4.05
2018-05-17T17:28:19.046Z,3.80
2018-05-17T17:30:52.892Z,4.50
2018-05-17T17:33:26.430Z,6.62
2018-05-17T17:35:59.949Z,10.20
2018-05-17T17:38:33.559Z,6.82
2018-05-17T17:41:07.279Z,6.82
2018-05-17T17:43:40.974Z,4.75
2018-05-17T17:46:14.534Z,4.62
2018-05-17T17:48:48.987Z,4.25
2018-05-17T17:51:22.516Z,4.80
2018-05-17T17:53:56.108Z,6.28
2018-05-17T17:56:29.781Z,12.40
2018-05-17T17:59:04.174Z,7.30
2018-05-17T18:01:38.640Z,5.25
2018-05-17T18:04:12.356Z,7.10
2018-05-17T18:06:46.022Z,8.27
2018-05-17T18:09:19.622Z,7.30
2018-05-17T18:11:54.089Z,5.90
2018-05-17T18:14:27.661Z,6.87
2018-05-17T18:17:02.087Z,5.47
2018-05-17T18:19:35.798Z,9.45
2018-05-17T18:22:09.375Z,8.63
2018-05-17T18:24:43.695Z,7.55
2018-05-17T18:27:18.012Z,6.62
2018-05-17T18:29:51.735Z,7.15
2018-05-17T18:32:25.238Z,6.53
2018-05-17T18:34:58.754Z,8.23
2018-05-17T18:37:32.425Z,8.45
2018-05-17T18:40:06.028Z,6.75
2018-05-17T18:42:39.661Z,7.57
2018-05-17T18:45:14.128Z,6.95
2018-05-17T18:47:47.741Z,7.05
2018-05-17T18:50:21.296Z,7.60
2018-05-17T18:52:54.971Z,7.35
2018-05-17T18:55:29.349Z,6.95
2018-05-17T18:58:02.946Z,7.07
2018-05-17T19:00:36.552Z,7.40
2018-05-17T19:03:10.075Z,8.38
2018-05-17T19:05:43.559Z,9.45
2018-05-17T19:08:17.143Z,8.48
2018-05-17T19:10:50.888Z,8.65
2018-05-17T19:13:25.182Z,9.77
2018-05-17T19:15:59.502Z,8.38
2018-05-17T19:18:33.218Z,7.87
2018-05-17T19:21:06.823Z,8.30
2018-05-17T19:23:40.402Z,10.15
2018-05-17T19:26:14.795Z,10.35
2018-05-17T19:28:49.329Z,11.98
2018-05-17T19:31:22.884Z,11.85
2018-05-17T19:33:56.471Z,13.23
2018-05-17T19:36:29.988Z,11.20
2018-05-17T19:39:04.346Z,12.85
2018-05-17T19:41:38.839Z,11.50
2018-05-17T19:44:12.526Z,12.82
2018-05-17T19:46:46.062Z,11.85
2018-05-17T19:49:19.719Z,10.60
2018-05-17T19:51:53.422Z,11.90
2018-05-17T19:54:26.979Z,10.00
2018-05-17T19:57:00.505Z,8.65
2018-05-17T19:59:34.870Z,8.75
2018-05-17T20:02:08.630Z,8.80
2018-05-17T20:04:42.242Z,8.55
2018-05-17T20:07:15.814Z,9.25
2018-05-17T20:09:49.418Z,9.27
2018-05-17T20:12:23.018Z,9.45
2018-05-17T20:14:56.702Z,8.90
2018-05-17T20:17:30.365Z,8.45
2018-05-17T20:20:04.035Z,9.35
2018-05-17T20:22:37.638Z,9.52
2018-05-17T20:25:11.217Z,10.55
2018-05-17T20:27:44.917Z,10.50
2018-05-17T20:30:18.527Z,11.00
2018-05-17T20:32:52.114Z,17.05
2018-05-17T20:35:26.547Z,16.92
2018-05-17T20:38:00.238Z,16.37
2018-05-17T20:40:33.899Z,10.80
2018-05-17T20:43:08.485Z,11.20
2018-05-17T20:45:42.153Z,11.20
2018-05-17T20:48:16.532Z,11.85
2018-05-17T20:50:50.930Z,11.38
2018-05-17T20:53:24.602Z,11.98
2018-05-17T20:55:58.350Z,12.93
2018-05-17T20:58:31.851Z,13.15
2018-05-17T21:01:06.156Z,13.93
2018-05-17T21:03:39.775Z,15.13
2018-05-17T21:06:13.338Z,14.30
2018-05-17T21:08:46.935Z,17.60
2018-05-17T21:11:21.458Z,16.33
2018-05-17T21:13:55.188Z,16.87
2018-05-17T21:16:28.742Z,17.85
2018-05-17T21:19:02.289Z,18.75
2018-05-17T21:21:35.884Z,17.75
2018-05-17T21:24:09.597Z,20.10
2018-05-17T21:26:43.168Z,20.08
2018-05-17T21:29:16.717Z,19.33
2018-05-17T21:31:50.293Z,19.25
2018-05-17T21:34:23.847Z,23.23
2018-05-17T21:36:57.454Z,31.27
2018-05-17T21:39:31.093Z,29.50
2018-05-17T21:42:04.809Z,33.88
2018-05-17T21:44:38.348Z,30.60
2018-05-17T21:47:11.995Z,33.80
2018-05-17T21:49:45.489Z,35.13
2018-05-17T21:52:19.069Z,35.53
2018-05-17T21:54:53.427Z,36.38
2018-05-17T21:57:27.109Z,38.83
2018-05-17T22:00:00.697Z,38.97
2018-05-17T22:02:34.216Z,37.47
2018-05-17T22:05:08.519Z,39.08
2018-05-17T22:07:42.269Z,38.83
2018-05-17T22:10:15.909Z,37.53
2018-05-17T22:12:49.433Z,41.70
2018-05-17T22:15:23.150Z,41.42
2018-05-17T22:17:56.871Z,41.45
2018-05-17T22:20:30.434Z,38.75
2018-05-17T22:23:04.042Z,41.83
2018-05-17T22:25:38.311Z,43.87
2018-05-17T22:28:11.994Z,46.33
2018-05-17T22:30:45.551Z,41.70
2018-05-17T22:33:19.878Z,41.22
2018-05-17T22:35:53.420Z,42.45
2018-05-17T22:38:26.990Z,41.10
2018-05-17T22:41:00.706Z,38.53
2018-05-17T22:43:34.244Z,38.75
2018-05-17T22:46:07.760Z,42.42
2018-05-17T22:48:41.358Z,43.42
2018-05-17T22:51:14.909Z,40.63
2018-05-17T22:53:48.459Z,45.20
2018-05-17T22:56:34.119Z,45.05
2018-05-17T22:59:07.700Z,44.97
2018-05-17T23:01:41.222Z,42.80
2018-05-17T23:04:14.857Z,44.35
2018-05-17T23:06:48.483Z,45.85
2018-05-17T23:09:22.026Z,46.17
2018-05-17T23:11:56.375Z,46.80
2018-05-17T23:14:30.679Z,42.53
2018-05-17T23:17:04.373Z,43.95
2018-05-17T23:19:37.919Z,43.78
2018-05-17T23:35:40.976Z,43.17
2018-05-17T23:38:15.494Z,46.97
2018-05-17T23:41:12.500Z,44.90
2018-05-17T23:43:46.055Z,43.97
2018-05-17T23:46:19.633Z,46.83
2018-05-17T23:48:53.954Z,45.78
2018-05-17T23:51:27.546Z,45.50
2018-05-17T23:54:01.253Z,48.22
2018-05-17T23:56:35.566Z,45.45
2018-05-17T23:59:09.325Z,44.97
